createdAt,value
2016-11-04T00:00:12.638Z,8
2016-11-04T00:01:23.258Z,12
2016-11-04T00:03:59.010Z,8
2016-11-04T00:05:09.672Z,8
2016-11-04T00:06:20.388Z,12
2016-11-04T00:07:31.020Z,8
2016-11-04T00:08:42.043Z,12
2016-11-04T00:09:52.666Z,4
2016-11-04T00:11:03.323Z,4
2016-11-04T00:12:14.183Z,12
2016-11-04T00:13:24.988Z,12
2016-11-04T00:14:36.048Z,12
2016-11-04T00:16:01.184Z,12
2016-11-04T00:17:12.219Z,12
2016-11-04T00:18:37.293Z,12
2016-11-04T00:19:48.221Z,12
2016-11-04T00:20:58.757Z,12
2016-11-04T00:22:09.205Z,12
2016-11-04T00:23:19.612Z,8
2016-11-04T00:24:30.016Z,4
2016-11-04T00:25:54.976Z,12
2016-11-04T00:27:20.170Z,8
2016-11-04T00:28:31.177Z,12
2016-11-04T00:29:41.582Z,8
2016-11-04T00:30:51.995Z,8
2016-11-04T00:32:02.402Z,12
2016-11-04T00:33:12.810Z,12
2016-11-04T00:34:23.442Z,12
2016-11-04T00:35:33.851Z,12
2016-11-04T00:36:44.947Z,12
2016-11-04T00:37:55.946Z,12
2016-11-04T00:39:06.757Z,12
2016-11-04T00:40:17.163Z,12
2016-11-04T00:41:27.572Z,12
2016-11-04T00:42:38.576Z,12
2016-11-04T00:44:03.932Z,12
2016-11-04T00:45:14.340Z,12
2016-11-04T00:46:24.754Z,12
2016-11-04T00:47:35.649Z,12
2016-11-04T00:48:46.065Z,12
2016-11-04T00:49:56.679Z,12
2016-11-04T00:51:07.478Z,12
2016-11-04T00:52:18.086Z,12
2016-11-04T00:53:28.692Z,12
2016-11-04T00:54:39.506Z,12
2016-11-04T00:55:50.164Z,12
2016-11-04T00:57:01.123Z,8
2016-11-04T00:58:11.650Z,8
2016-11-04T00:59:22.181Z,8
2016-11-04T01:00:33.494Z,8
2016-11-04T01:01:44.168Z,8
2016-11-04T01:02:55.087Z,8
2016-11-04T01:06:56.121Z,8
2016-11-04T01:08:06.647Z,8
2016-11-04T01:09:17.178Z,8
2016-11-04T01:10:27.892Z,8
2016-11-04T01:11:38.613Z,12
2016-11-04T01:12:49.343Z,12
2016-11-04T01:14:00.368Z,12
2016-11-04T01:15:10.901Z,12
2016-11-04T01:16:21.428Z,8
2016-11-04T01:17:32.353Z,12
2016-11-04T01:18:43.288Z,12
2016-11-04T01:19:54.029Z,8
2016-11-04T01:21:04.566Z,8
2016-11-04T01:22:15.484Z,12
2016-11-04T01:23:26.590Z,12
2016-11-04T01:24:37.476Z,12
2016-11-04T01:25:48.008Z,12
2016-11-04T01:26:58.581Z,12
2016-11-04T01:29:34.568Z,12
2016-11-04T01:30:46.491Z,12
2016-11-04T01:33:22.501Z,12
2016-11-04T01:34:33.233Z,12
2016-11-04T01:35:43.763Z,12
2016-11-04T01:36:54.293Z,12
2016-11-04T01:38:05.008Z,12
2016-11-04T01:40:40.821Z,12
2016-11-04T01:41:51.739Z,12
2016-11-04T01:43:02.272Z,12
2016-11-04T01:44:13.201Z,12
2016-11-04T01:45:38.258Z,12
2016-11-04T01:46:48.804Z,12
2016-11-04T01:47:59.405Z,12
2016-11-04T01:49:10.533Z,12
2016-11-04T01:50:21.152Z,12
2016-11-04T01:51:32.208Z,12
2016-11-04T01:52:42.831Z,12
2016-11-04T01:53:53.450Z,12
2016-11-04T01:55:04.072Z,12
2016-11-04T01:56:15.202Z,12
2016-11-04T01:57:26.041Z,12
2016-11-04T01:58:36.667Z,12
2016-11-04T02:01:12.421Z,4
2016-11-04T02:02:23.847Z,12
2016-11-04T02:03:34.467Z,8
2016-11-04T02:04:45.089Z,12
2016-11-04T02:05:55.711Z,12
2016-11-04T02:07:06.376Z,12
2016-11-04T02:08:17.199Z,12
2016-11-04T02:09:27.859Z,8
2016-11-04T02:10:38.869Z,8
2016-11-04T02:11:49.499Z,12
2016-11-04T02:13:00.544Z,12
2016-11-04T02:14:11.974Z,12
2016-11-04T02:15:22.595Z,12
2016-11-04T02:16:33.213Z,12
2016-11-04T02:17:43.832Z,12
2016-11-04T02:18:54.857Z,8
2016-11-04T02:20:05.679Z,12
2016-11-04T02:21:16.831Z,12
2016-11-04T02:22:27.452Z,12
2016-11-04T02:23:38.078Z,12
2016-11-04T02:24:48.730Z,12
2016-11-04T02:25:59.554Z,12
2016-11-04T02:27:10.173Z,12
2016-11-04T02:28:20.798Z,12
2016-11-04T02:29:31.433Z,12
2016-11-04T02:30:42.054Z,12
2016-11-04T02:31:52.914Z,12
2016-11-04T02:33:04.882Z,12
2016-11-04T02:34:15.612Z,12
2016-11-04T02:35:26.141Z,12
2016-11-04T02:36:36.679Z,12
2016-11-04T02:37:47.407Z,12
2016-11-04T02:38:57.944Z,4
2016-11-04T02:40:08.659Z,12
2016-11-04T02:41:19.189Z,12
2016-11-04T02:42:29.717Z,12
2016-11-04T02:43:40.360Z,12
2016-11-04T02:44:51.392Z,12
2016-11-04T02:46:01.929Z,8
2016-11-04T02:47:12.457Z,12
2016-11-04T02:48:23.172Z,8
2016-11-04T02:49:33.801Z,8
2016-11-04T02:50:44.333Z,12
2016-11-04T02:51:55.082Z,12
2016-11-04T02:53:05.616Z,12
2016-11-04T02:54:16.146Z,12
2016-11-04T02:55:41.310Z,12
2016-11-04T02:56:51.847Z,8
2016-11-04T02:58:02.564Z,12
2016-11-04T02:59:13.095Z,12
2016-11-04T03:00:24.131Z,12
2016-11-04T03:01:34.764Z,12
2016-11-04T03:02:45.306Z,12
2016-11-04T03:03:55.845Z,12
2016-11-04T03:05:06.878Z,12
2016-11-04T03:06:17.593Z,12
2016-11-04T03:07:28.327Z,12
2016-11-04T03:08:38.864Z,12
2016-11-04T03:09:49.311Z,12
2016-11-04T03:12:25.300Z,12
2016-11-04T03:13:35.744Z,12
2016-11-04T03:14:46.640Z,12
2016-11-04T03:15:57.053Z,12
2016-11-04T03:17:07.461Z,12
2016-11-04T03:18:18.073Z,12
2016-11-04T03:19:28.485Z,12
2016-11-04T03:20:38.896Z,12
2016-11-04T03:21:49.994Z,12
2016-11-04T03:23:00.449Z,12
2016-11-04T03:24:11.443Z,12
2016-11-04T03:25:22.249Z,12
2016-11-04T03:26:32.695Z,12
2016-11-04T03:27:43.103Z,12
2016-11-04T03:28:53.999Z,12
2016-11-04T03:30:04.548Z,12
2016-11-04T03:31:15.650Z,12
2016-11-04T03:32:26.054Z,12
2016-11-04T03:33:36.869Z,12
2016-11-04T03:34:47.326Z,12
2016-11-04T03:35:57.933Z,12
2016-11-04T03:37:22.889Z,12
2016-11-04T03:38:33.308Z,12
2016-11-04T03:39:43.728Z,12
2016-11-04T03:42:19.329Z,12
2016-11-04T03:43:30.225Z,12
2016-11-04T03:44:40.829Z,12
2016-11-04T03:45:51.480Z,12
2016-11-04T03:47:01.897Z,12
2016-11-04T03:48:12.342Z,12
2016-11-04T03:49:22.753Z,12
2016-11-04T03:50:33.194Z,12
2016-11-04T03:51:43.807Z,12
2016-11-04T03:52:54.621Z,12
2016-11-04T03:54:05.507Z,12
2016-11-04T03:55:15.909Z,12
2016-11-04T03:56:40.869Z,12
2016-11-04T03:57:51.276Z,12
2016-11-04T03:59:02.643Z,12
2016-11-04T04:00:13.052Z,12
2016-11-04T04:01:23.458Z,12
2016-11-04T04:02:33.964Z,12
2016-11-04T04:03:44.376Z,12
2016-11-04T04:04:55.218Z,12
2016-11-04T04:06:05.663Z,12
2016-11-04T04:07:16.073Z,12
2016-11-04T04:08:26.680Z,12
2016-11-04T04:09:37.088Z,12
2016-11-04T04:10:47.697Z,12
2016-11-04T04:11:58.133Z,12
2016-11-04T04:13:08.554Z,12
2016-11-04T04:14:18.962Z,12
2016-11-04T04:15:29.397Z,12
2016-11-04T04:16:40.535Z,12
2016-11-04T04:17:50.979Z,12
2016-11-04T04:19:01.583Z,12
2016-11-04T04:20:12.187Z,12
2016-11-04T04:21:22.597Z,12
2016-11-04T04:22:34.488Z,12
2016-11-04T04:23:44.888Z,12
2016-11-04T04:24:55.294Z,12
2016-11-04T04:26:05.904Z,12
2016-11-04T04:27:16.346Z,12
2016-11-04T04:28:26.772Z,12
2016-11-04T04:29:37.184Z,12
2016-11-04T04:30:47.639Z,12
2016-11-04T04:31:58.040Z,12
2016-11-04T04:33:22.989Z,12
2016-11-04T04:34:33.388Z,12
2016-11-04T04:35:43.990Z,12
2016-11-04T04:36:54.391Z,12
2016-11-04T04:38:04.834Z,12
2016-11-04T04:39:15.230Z,12
2016-11-04T04:40:25.829Z,12
2016-11-04T04:41:36.271Z,12
2016-11-04T04:42:46.879Z,12
2016-11-04T04:44:11.831Z,12
2016-11-04T04:45:37.211Z,12
2016-11-04T04:46:48.002Z,12
2016-11-04T04:47:58.583Z,12
2016-11-04T04:49:09.070Z,12
2016-11-04T04:50:19.642Z,12
2016-11-04T04:52:55.782Z,12
2016-11-04T04:54:06.387Z,12
2016-11-04T04:56:42.292Z,12
2016-11-04T04:57:52.904Z,12
2016-11-04T04:59:03.713Z,12
2016-11-04T05:00:14.320Z,12
2016-11-04T05:01:25.425Z,12
2016-11-04T05:02:36.030Z,12
2016-11-04T05:04:01.129Z,12
2016-11-04T05:05:11.739Z,12
2016-11-04T05:06:22.546Z,12
2016-11-04T05:07:33.155Z,12
2016-11-04T05:08:43.969Z,12
2016-11-04T05:09:54.570Z,12
2016-11-04T05:11:05.175Z,12
2016-11-04T05:12:15.781Z,12
2016-11-04T05:13:26.381Z,12
2016-11-04T05:14:37.161Z,12
2016-11-04T05:16:02.275Z,12
2016-11-04T05:17:12.882Z,12
2016-11-04T05:18:23.853Z,12
2016-11-04T05:19:34.554Z,12
2016-11-04T05:20:45.151Z,12
2016-11-04T05:21:55.748Z,12
2016-11-04T05:23:06.347Z,12
2016-11-04T05:24:16.853Z,12
2016-11-04T05:25:27.532Z,12
2016-11-04T05:26:38.388Z,12
2016-11-04T05:27:48.863Z,12
2016-11-04T05:28:59.336Z,12
2016-11-04T05:30:09.817Z,12
2016-11-04T05:31:20.385Z,12
2016-11-04T05:32:30.845Z,12
2016-11-04T05:33:41.248Z,12
2016-11-04T05:34:52.108Z,12
2016-11-04T05:36:02.487Z,12
2016-11-04T05:37:12.873Z,12
2016-11-04T05:38:23.651Z,12
2016-11-04T05:39:34.026Z,12
2016-11-04T05:40:44.401Z,12
2016-11-04T05:41:54.771Z,12
2016-11-04T05:43:05.253Z,12
2016-11-04T05:44:15.616Z,12
2016-11-04T05:45:25.984Z,12
2016-11-04T05:46:36.357Z,12
2016-11-04T05:47:46.725Z,12
2016-11-04T05:48:57.287Z,12
2016-11-04T05:50:07.681Z,12
2016-11-04T05:51:18.048Z,12
2016-11-04T05:52:28.440Z,12
2016-11-04T05:53:38.825Z,12
2016-11-04T05:54:49.418Z,12
2016-11-04T05:55:59.833Z,12
2016-11-04T05:57:10.212Z,12
2016-11-04T05:58:20.578Z,12
2016-11-04T05:59:30.953Z,12
2016-11-04T06:00:41.552Z,12
2016-11-04T06:03:16.871Z,12
2016-11-04T06:04:27.234Z,12
2016-11-04T06:05:52.165Z,12
2016-11-04T06:07:17.116Z,12
2016-11-04T06:08:27.506Z,12
2016-11-04T06:09:37.877Z,12
2016-11-04T06:10:48.373Z,12
2016-11-04T06:11:58.734Z,12
2016-11-04T06:13:09.592Z,12
2016-11-04T06:14:19.995Z,12
2016-11-04T06:15:30.858Z,12
2016-11-04T06:16:41.459Z,12
2016-11-04T06:17:52.419Z,12
2016-11-04T06:19:02.883Z,12
2016-11-04T06:20:13.343Z,12
2016-11-04T06:21:23.795Z,12
2016-11-04T06:22:34.942Z,12
2016-11-04T06:23:45.393Z,12
2016-11-04T06:24:55.876Z,12
2016-11-04T06:26:20.852Z,12
2016-11-04T06:27:31.809Z,12
2016-11-04T06:28:42.264Z,12
2016-11-04T06:29:53.141Z,12
2016-11-04T06:31:18.147Z,12
2016-11-04T06:32:28.690Z,12
2016-11-04T06:33:39.478Z,12
2016-11-04T06:35:04.612Z,12
2016-11-04T06:36:15.200Z,12
2016-11-04T06:37:25.820Z,12
2016-11-04T06:38:36.645Z,12
2016-11-04T06:39:47.625Z,12
2016-11-04T06:42:23.533Z,12
2016-11-04T06:43:34.341Z,12
2016-11-04T06:44:44.927Z,12
2016-11-04T06:45:55.480Z,12
2016-11-04T06:47:20.623Z,12
2016-11-04T06:48:31.215Z,12
2016-11-04T06:49:41.871Z,12
2016-11-04T06:50:52.448Z,12
2016-11-04T06:52:03.021Z,4
2016-11-04T06:53:13.627Z,12
2016-11-04T06:54:24.411Z,12
2016-11-04T06:55:34.990Z,12
2016-11-04T06:56:45.568Z,12
2016-11-04T06:57:56.183Z,12
2016-11-04T06:59:06.768Z,12
2016-11-04T07:00:17.546Z,12
2016-11-04T07:01:28.129Z,12
2016-11-04T07:02:38.758Z,12
2016-11-04T07:03:49.330Z,12
2016-11-04T07:04:59.899Z,12
2016-11-04T07:06:24.932Z,12
2016-11-04T07:07:35.597Z,12
2016-11-04T07:08:46.269Z,12
2016-11-04T07:09:56.743Z,12
2016-11-04T07:11:07.294Z,12
2016-11-04T07:12:32.283Z,12
2016-11-04T07:13:42.788Z,12
2016-11-04T07:16:32.870Z,12
2016-11-04T07:17:43.310Z,12
2016-11-04T07:18:53.775Z,12
2016-11-04T07:20:04.227Z,12
2016-11-04T07:21:14.694Z,8
2016-11-04T07:22:25.175Z,12
2016-11-04T07:23:35.611Z,12
2016-11-04T07:24:46.069Z,12
2016-11-04T07:25:56.518Z,12
2016-11-04T07:27:07.160Z,12
2016-11-04T07:28:17.801Z,8
2016-11-04T07:29:28.247Z,8
2016-11-04T07:30:38.708Z,12
2016-11-04T07:31:49.158Z,12
2016-11-04T07:32:59.714Z,12
2016-11-04T07:34:10.205Z,12
2016-11-04T07:35:20.649Z,12
2016-11-04T07:36:31.121Z,12
2016-11-04T07:37:41.596Z,4
2016-11-04T07:38:52.243Z,12
2016-11-04T07:40:02.695Z,12
2016-11-04T07:41:27.689Z,12
2016-11-04T07:42:38.120Z,12
2016-11-04T07:43:48.761Z,12
2016-11-04T07:44:59.253Z,12
2016-11-04T07:46:24.232Z,8
2016-11-04T07:47:34.627Z,8
2016-11-04T07:48:45.017Z,12
2016-11-04T07:49:55.384Z,12
2016-11-04T07:51:05.751Z,12
2016-11-04T07:52:16.094Z,12
2016-11-04T07:53:26.456Z,12
2016-11-04T07:54:36.805Z,12
2016-11-04T07:55:47.165Z,12
2016-11-04T07:56:57.545Z,12
2016-11-04T07:58:07.916Z,12
2016-11-04T07:59:32.830Z,12
2016-11-04T08:00:43.207Z,12
2016-11-04T08:01:53.568Z,12
2016-11-04T08:03:03.948Z,16
2016-11-04T08:04:14.314Z,12
2016-11-04T08:05:24.781Z,12
2016-11-04T08:06:35.127Z,12
2016-11-04T08:07:45.475Z,12
2016-11-04T08:08:55.835Z,12
2016-11-04T08:10:07.066Z,12
2016-11-04T08:11:17.532Z,16
2016-11-04T08:12:27.916Z,16
2016-11-04T08:13:38.332Z,12
2016-11-04T08:14:48.805Z,16
2016-11-04T08:15:59.292Z,12
2016-11-04T08:17:09.873Z,12
2016-11-04T08:18:20.336Z,16
2016-11-04T08:19:30.802Z,12
2016-11-04T08:20:41.281Z,16
2016-11-04T08:21:51.741Z,16
2016-11-04T08:23:02.330Z,16
2016-11-04T08:24:12.820Z,16
2016-11-04T08:25:37.823Z,16
2016-11-04T08:26:48.297Z,20
2016-11-04T08:27:58.809Z,24
2016-11-04T08:29:09.291Z,12
2016-11-04T08:30:19.750Z,12
2016-11-04T08:31:30.224Z,20
2016-11-04T08:32:40.726Z,16
2016-11-04T08:33:51.419Z,20
2016-11-04T08:35:16.435Z,24
2016-11-04T08:36:26.905Z,24
2016-11-04T08:37:37.368Z,24
2016-11-04T08:38:47.821Z,24
2016-11-04T08:39:58.301Z,28
2016-11-04T08:41:08.769Z,28
2016-11-04T08:42:19.258Z,28
2016-11-04T08:43:29.721Z,32
2016-11-04T08:44:40.202Z,32
2016-11-04T08:45:50.667Z,32
2016-11-04T08:47:01.156Z,36
2016-11-04T08:48:11.650Z,36
2016-11-04T08:49:22.123Z,36
2016-11-04T08:50:47.341Z,40
2016-11-04T08:51:57.811Z,40
2016-11-04T08:53:08.287Z,48
2016-11-04T08:54:18.747Z,44
2016-11-04T08:55:29.328Z,48
2016-11-04T08:56:54.355Z,48
2016-11-04T08:58:04.827Z,48
2016-11-04T08:59:15.287Z,56
2016-11-04T09:00:25.772Z,56
2016-11-04T09:01:36.245Z,52
2016-11-04T09:02:46.720Z,52
2016-11-04T09:03:57.176Z,44
2016-11-04T09:05:07.641Z,44
2016-11-04T09:06:18.103Z,48
2016-11-04T09:07:28.567Z,60
2016-11-04T09:08:39.028Z,60
2016-11-04T09:09:49.509Z,68
2016-11-04T09:11:00.663Z,80
2016-11-04T09:12:11.121Z,88
2016-11-04T09:13:21.580Z,80
2016-11-04T09:14:32.032Z,68
2016-11-04T09:15:42.481Z,68
2016-11-04T09:16:52.986Z,68
2016-11-04T09:18:03.504Z,64
2016-11-04T09:19:14.040Z,72
2016-11-04T09:20:39.102Z,80
2016-11-04T09:21:49.685Z,76
2016-11-04T09:23:00.264Z,76
2016-11-04T09:24:11.939Z,84
2016-11-04T09:25:37.012Z,92
2016-11-04T09:26:48.065Z,92
2016-11-04T09:27:58.802Z,96
2016-11-04T09:29:09.377Z,96
2016-11-04T09:30:19.939Z,96
2016-11-04T09:31:30.468Z,100
2016-11-04T09:32:41.011Z,104
2016-11-04T09:33:51.769Z,104
2016-11-04T09:35:02.305Z,104
2016-11-04T09:36:12.848Z,108
2016-11-04T09:37:37.913Z,108
2016-11-04T09:38:48.448Z,108
2016-11-04T09:39:58.985Z,124
2016-11-04T09:41:09.539Z,132
2016-11-04T09:42:34.609Z,136
2016-11-04T09:43:45.157Z,148
2016-11-04T09:44:55.708Z,144
2016-11-04T09:46:20.764Z,144
2016-11-04T09:47:45.826Z,140
2016-11-04T09:48:56.404Z,136
2016-11-04T09:50:07.350Z,136
2016-11-04T09:51:17.914Z,148
2016-11-04T09:52:28.524Z,148
2016-11-04T09:55:18.658Z,156
2016-11-04T09:56:29.213Z,160
2016-11-04T09:57:39.760Z,164
2016-11-04T09:58:50.309Z,168
2016-11-04T10:00:01.040Z,160
2016-11-04T10:01:11.578Z,152
2016-11-04T10:02:22.110Z,168
2016-11-04T10:04:57.705Z,200
2016-11-04T10:06:08.247Z,180
2016-11-04T10:07:18.786Z,184
2016-11-04T10:08:29.323Z,188
2016-11-04T10:09:39.873Z,180
2016-11-04T10:10:50.459Z,184
2016-11-04T10:12:01.002Z,200
2016-11-04T10:13:12.065Z,216
2016-11-04T10:14:22.610Z,220
2016-11-04T10:15:33.155Z,236
2016-11-04T10:16:43.819Z,240
2016-11-04T10:17:54.380Z,244
2016-11-04T10:19:04.952Z,256
2016-11-04T10:20:15.508Z,252
2016-11-04T10:21:26.072Z,244
2016-11-04T10:22:36.724Z,240
2016-11-04T10:23:47.279Z,216
2016-11-04T10:24:57.852Z,196
2016-11-04T10:26:08.448Z,188
2016-11-04T10:27:19.021Z,192
2016-11-04T10:28:30.189Z,192
2016-11-04T10:29:40.633Z,196
2016-11-04T10:30:51.078Z,188
2016-11-04T10:32:01.511Z,192
2016-11-04T10:33:11.949Z,192
2016-11-04T10:34:22.600Z,168
2016-11-04T10:35:33.063Z,176
2016-11-04T10:36:43.509Z,172
2016-11-04T10:37:53.945Z,196
2016-11-04T10:39:19.157Z,200
2016-11-04T10:41:54.592Z,164
2016-11-04T10:43:05.041Z,148
2016-11-04T10:44:15.491Z,144
2016-11-04T10:45:26.304Z,140
2016-11-04T10:46:36.756Z,140
2016-11-04T10:47:47.144Z,136
2016-11-04T10:48:57.483Z,136
2016-11-04T10:50:07.833Z,136
2016-11-04T10:51:18.297Z,116
2016-11-04T10:52:28.682Z,100
2016-11-04T10:53:53.586Z,104
2016-11-04T10:55:04.121Z,116
2016-11-04T10:56:14.751Z,124
2016-11-04T10:57:25.107Z,140
2016-11-04T10:58:35.458Z,168
2016-11-04T10:59:45.829Z,184
2016-11-04T11:00:56.407Z,204
2016-11-04T11:02:06.968Z,184
2016-11-04T11:03:17.352Z,152
2016-11-04T11:04:27.763Z,132
2016-11-04T11:05:38.155Z,112
2016-11-04T11:06:48.518Z,112
2016-11-04T11:07:58.885Z,176
2016-11-04T11:10:48.770Z,324
2016-11-04T11:11:59.171Z,336
2016-11-04T11:13:10.153Z,352
2016-11-04T11:14:20.545Z,324
2016-11-04T11:15:30.900Z,388
2016-11-04T11:18:06.641Z,268
2016-11-04T11:19:17.027Z,252
2016-11-04T11:20:27.407Z,296
2016-11-04T11:21:37.771Z,296
2016-11-04T11:23:02.730Z,296
2016-11-04T11:24:13.395Z,284
2016-11-04T11:25:23.783Z,252
2016-11-04T11:26:34.156Z,268
2016-11-04T11:27:44.528Z,252
2016-11-04T11:28:55.106Z,248
2016-11-04T11:30:05.498Z,228
2016-11-04T11:31:15.859Z,212
2016-11-04T11:32:26.242Z,196
2016-11-04T11:33:51.183Z,188
2016-11-04T11:35:16.117Z,212
2016-11-04T11:36:26.569Z,212
2016-11-04T11:37:37.087Z,224
2016-11-04T11:38:47.594Z,316
2016-11-04T11:39:58.345Z,408
2016-11-04T11:41:08.833Z,400
2016-11-04T11:42:19.318Z,416
2016-11-04T11:43:29.804Z,368
2016-11-04T11:44:40.504Z,324
2016-11-04T11:45:51.036Z,340
2016-11-04T11:47:01.545Z,336
2016-11-04T11:48:12.034Z,308
2016-11-04T11:49:22.555Z,272
2016-11-04T11:50:33.046Z,252
2016-11-04T11:51:43.560Z,244
2016-11-04T11:52:54.060Z,240
2016-11-04T11:54:04.549Z,264
2016-11-04T11:55:15.063Z,328
2016-11-04T11:56:25.582Z,360
2016-11-04T11:57:36.099Z,332
2016-11-04T11:58:46.790Z,284
2016-11-04T11:59:57.303Z,256
2016-11-04T12:01:07.824Z,288
2016-11-04T12:02:18.314Z,328
2016-11-04T12:03:28.874Z,304
2016-11-04T12:07:29.699Z,240
2016-11-04T12:08:40.208Z,240
2016-11-04T12:09:50.716Z,228
2016-11-04T12:11:15.770Z,216
2016-11-04T12:12:26.275Z,236
2016-11-04T12:13:36.810Z,236
2016-11-04T12:14:47.855Z,204
2016-11-04T12:16:12.906Z,208
2016-11-04T12:17:23.426Z,192
2016-11-04T12:18:34.130Z,208
2016-11-04T12:19:44.649Z,256
2016-11-04T12:20:55.165Z,296
2016-11-04T12:22:06.175Z,312
2016-11-04T12:23:31.227Z,332
2016-11-04T12:24:41.789Z,408
2016-11-04T12:25:52.331Z,424
2016-11-04T12:27:02.929Z,404
2016-11-04T12:28:13.458Z,404
2016-11-04T12:29:23.967Z,336
2016-11-04T12:30:49.553Z,308
2016-11-04T12:32:00.074Z,328
2016-11-04T12:33:11.315Z,304
2016-11-04T12:34:22.031Z,268
2016-11-04T12:35:32.550Z,244
2016-11-04T12:38:08.623Z,412
2016-11-04T12:39:19.185Z,296
2016-11-04T12:40:29.717Z,256
2016-11-04T12:41:54.800Z,268
2016-11-04T12:43:19.845Z,292
2016-11-04T12:44:30.573Z,284
2016-11-04T12:45:41.091Z,320
2016-11-04T12:46:51.621Z,332
2016-11-04T12:48:02.178Z,312
2016-11-04T12:49:27.230Z,288
2016-11-04T12:52:02.804Z,340
2016-11-04T12:53:13.338Z,384
2016-11-04T12:54:24.253Z,424
2016-11-04T12:55:35.682Z,436
2016-11-04T12:56:46.217Z,412
2016-11-04T12:57:56.817Z,420
2016-11-04T12:59:21.864Z,572
2016-11-04T13:00:32.390Z,652
2016-11-04T13:01:42.913Z,700
2016-11-04T13:02:53.513Z,740
2016-11-04T13:04:04.533Z,740
2016-11-04T13:05:15.150Z,660
2016-11-04T13:06:25.966Z,604
2016-11-04T13:07:36.624Z,592
2016-11-04T13:08:47.234Z,624
2016-11-04T13:11:23.176Z,860
2016-11-04T13:12:33.792Z,900
2016-11-04T13:13:44.457Z,860
2016-11-04T13:14:55.074Z,1044
2016-11-04T13:16:05.690Z,980
2016-11-04T13:17:16.230Z,780
2016-11-04T13:18:26.729Z,636
2016-11-04T13:19:37.291Z,560
2016-11-04T13:20:48.208Z,536
2016-11-04T13:22:13.275Z,524
2016-11-04T13:23:24.463Z,528
2016-11-04T13:26:00.397Z,528
2016-11-04T13:27:10.896Z,644
2016-11-04T13:28:21.395Z,648
2016-11-04T13:29:31.902Z,696
2016-11-04T13:30:42.612Z,664
2016-11-04T13:33:18.671Z,816
2016-11-04T13:34:29.176Z,860
2016-11-04T13:35:39.710Z,924
2016-11-04T13:37:04.745Z,908
2016-11-04T13:38:30.006Z,892
2016-11-04T13:39:41.008Z,908
2016-11-04T13:40:51.900Z,872
2016-11-04T13:42:02.400Z,908
2016-11-04T13:43:12.901Z,952
2016-11-04T13:44:23.406Z,820
2016-11-04T13:45:33.942Z,708
2016-11-04T13:46:44.490Z,656
2016-11-04T13:47:55.007Z,576
2016-11-04T13:49:05.543Z,532
2016-11-04T13:50:16.447Z,636
2016-11-04T13:51:27.035Z,756
2016-11-04T13:52:37.663Z,844
2016-11-04T13:53:48.788Z,956
2016-11-04T13:54:59.407Z,948
2016-11-04T13:56:10.637Z,948
2016-11-04T13:57:21.255Z,1096
2016-11-04T13:58:31.877Z,1044
2016-11-04T13:59:57.914Z,1084
2016-11-04T14:01:08.779Z,1028
2016-11-04T14:02:19.397Z,952
2016-11-04T14:03:44.522Z,1044
2016-11-04T14:04:55.142Z,992
2016-11-04T14:06:05.956Z,656
2016-11-04T14:07:17.180Z,468
2016-11-04T14:08:27.807Z,456
2016-11-04T14:09:38.835Z,412
2016-11-04T14:10:49.952Z,468
2016-11-04T14:12:00.560Z,576
2016-11-04T14:13:11.226Z,664
2016-11-04T14:14:21.843Z,668
2016-11-04T14:15:32.458Z,724
2016-11-04T14:16:43.071Z,788
2016-11-04T14:17:53.938Z,852
2016-11-04T14:19:04.589Z,984
2016-11-04T14:20:29.710Z,948
2016-11-04T14:21:40.326Z,932
2016-11-04T14:22:51.360Z,944
2016-11-04T14:24:02.377Z,948
2016-11-04T14:25:13.226Z,856
2016-11-04T14:26:24.531Z,776
2016-11-04T14:27:35.145Z,768
2016-11-04T14:28:45.759Z,788
2016-11-04T14:29:56.377Z,772
2016-11-04T14:31:07.230Z,644
2016-11-04T14:32:17.774Z,528
2016-11-04T14:33:28.509Z,532
2016-11-04T14:34:39.033Z,460
2016-11-04T14:35:49.561Z,520
2016-11-04T14:37:00.274Z,632
2016-11-04T14:38:10.803Z,684
2016-11-04T14:39:21.339Z,756
2016-11-04T14:40:32.253Z,840
2016-11-04T14:41:42.776Z,756
2016-11-04T14:42:53.305Z,724
2016-11-04T14:44:03.832Z,808
2016-11-04T14:45:14.355Z,840
2016-11-04T14:46:25.474Z,796
2016-11-04T14:47:36.072Z,788
2016-11-04T14:48:46.597Z,764
2016-11-04T14:49:57.310Z,848
2016-11-04T14:51:07.841Z,836
2016-11-04T14:52:18.600Z,764
2016-11-04T14:53:29.125Z,860
2016-11-04T14:54:39.689Z,1092
2016-11-04T14:55:50.653Z,1192
2016-11-04T14:57:01.176Z,1260
2016-11-04T14:58:11.704Z,1008
2016-11-04T14:59:22.228Z,756
2016-11-04T15:00:32.755Z,652
2016-11-04T15:01:43.986Z,700
2016-11-04T15:02:54.512Z,820
2016-11-04T15:04:05.416Z,900
2016-11-04T15:05:15.943Z,996
2016-11-04T15:06:42.197Z,1040
2016-11-04T15:07:52.718Z,896
2016-11-04T15:09:03.247Z,824
2016-11-04T15:10:13.813Z,820
2016-11-04T15:12:49.405Z,820
2016-11-04T15:13:59.931Z,800
2016-11-04T15:15:10.711Z,672
2016-11-04T15:16:36.555Z,816
2016-11-04T15:17:47.150Z,832
2016-11-04T15:18:57.969Z,816
2016-11-04T15:20:08.859Z,748
2016-11-04T15:21:19.472Z,912
2016-11-04T15:22:30.087Z,1032
2016-11-04T15:23:40.702Z,1472
2016-11-04T15:24:51.348Z,1868
2016-11-04T15:26:02.165Z,2168
2016-11-04T15:27:12.968Z,2112
2016-11-04T15:28:23.796Z,1940
2016-11-04T15:29:34.607Z,1980
2016-11-04T15:30:45.222Z,2008
2016-11-04T15:31:55.844Z,1636
2016-11-04T15:33:06.504Z,1420
2016-11-04T15:34:17.139Z,1180
2016-11-04T15:35:27.954Z,964
2016-11-04T15:36:38.574Z,872
2016-11-04T15:37:49.189Z,924
2016-11-04T15:38:59.807Z,928
2016-11-04T15:40:10.457Z,988
2016-11-04T15:41:21.117Z,1232
2016-11-04T15:42:32.239Z,1444
2016-11-04T15:43:42.891Z,1444
2016-11-04T15:44:53.716Z,1496
2016-11-04T15:46:04.525Z,1412
2016-11-04T15:47:15.143Z,1240
2016-11-04T15:48:25.760Z,1020
2016-11-04T15:49:36.579Z,864
2016-11-04T15:50:47.601Z,812
2016-11-04T15:51:58.217Z,956
2016-11-04T15:53:08.836Z,1192
2016-11-04T15:54:19.484Z,1400
2016-11-04T15:55:30.103Z,1312
2016-11-04T15:56:55.227Z,1072
2016-11-04T15:58:06.349Z,952
2016-11-04T15:59:31.677Z,880
2016-11-04T16:00:42.496Z,1116
2016-11-04T16:01:53.454Z,1116
2016-11-04T16:03:19.009Z,648
2016-11-04T16:04:29.534Z,572
2016-11-04T16:05:40.066Z,656
2016-11-04T16:06:50.640Z,724
2016-11-04T16:08:01.169Z,620
2016-11-04T16:09:11.700Z,484
2016-11-04T16:10:22.235Z,420
2016-11-04T16:11:47.490Z,356
2016-11-04T16:12:58.252Z,424
2016-11-04T16:14:08.783Z,680
2016-11-04T16:15:19.309Z,720
2016-11-04T16:16:30.235Z,728
2016-11-04T16:17:40.759Z,636
2016-11-04T16:18:51.288Z,620
2016-11-04T16:20:01.818Z,632
2016-11-04T16:21:12.348Z,640
2016-11-04T16:22:22.876Z,672
2016-11-04T16:24:58.701Z,1124
2016-11-04T16:26:09.727Z,1284
2016-11-04T16:27:20.267Z,1240
2016-11-04T16:28:46.312Z,1048
2016-11-04T16:29:57.250Z,1072
2016-11-04T16:31:07.774Z,1220
2016-11-04T16:32:18.902Z,1284
2016-11-04T16:33:29.828Z,1204
2016-11-04T16:34:40.560Z,1204
2016-11-04T16:35:51.091Z,1180
2016-11-04T16:37:01.622Z,972
2016-11-04T16:38:27.073Z,1132
2016-11-04T16:39:37.601Z,1288
2016-11-04T16:40:48.159Z,1416
2016-11-04T16:41:59.612Z,1292
2016-11-04T16:43:10.145Z,1156
2016-11-04T16:44:20.669Z,1064
2016-11-04T16:45:31.393Z,1132
2016-11-04T16:46:56.654Z,1360
2016-11-04T16:48:07.188Z,1548
2016-11-04T16:49:17.749Z,1532
2016-11-04T16:50:28.666Z,1276
2016-11-04T16:51:53.719Z,1076
2016-11-04T16:53:18.975Z,1060
2016-11-04T16:54:29.708Z,964
2016-11-04T16:55:54.966Z,936
2016-11-04T16:57:05.499Z,856
2016-11-04T16:58:30.952Z,800
2016-11-04T16:59:41.480Z,668
2016-11-04T17:00:52.006Z,616
2016-11-04T17:02:02.542Z,548
2016-11-04T17:03:13.096Z,476
2016-11-04T17:04:38.148Z,440
2016-11-04T17:05:48.775Z,408
2016-11-04T17:06:59.888Z,408
2016-11-04T17:08:10.812Z,464
2016-11-04T17:09:21.556Z,528
2016-11-04T17:10:32.482Z,608
2016-11-04T17:11:43.205Z,596
2016-11-04T17:12:53.740Z,572
2016-11-04T17:14:04.278Z,648
2016-11-04T17:15:15.319Z,848
2016-11-04T17:16:25.884Z,948
2016-11-04T17:17:37.207Z,1020
2016-11-04T17:18:47.935Z,1236
2016-11-04T17:20:13.175Z,1516
2016-11-04T17:21:23.711Z,1284
2016-11-04T17:22:34.523Z,1140
2016-11-04T17:23:45.049Z,1044
2016-11-04T17:24:55.783Z,796
2016-11-04T17:26:06.314Z,688
2016-11-04T17:27:16.848Z,660